Flight Track Log - Related Links

Times and Time Zones

All times are in EST time to prevent confusion due to time zone crossing. See the VH-MXT flight status page for this flight to view local times or setup timezone preferences in your user account.

Time Position Orientation Groundspeed Altitude Reporting Facility
EST Latitude Longitude Course Direction KTS MPH feet Rate Location/Type
Sat 04:46:43 PM -33.9000 150.9535 307° West 86 99 1,100  Level Aus ATC (RADAR)
Sat 04:47:03 PM -33.8951 150.9457 307° West 84 97 1,400 800 Climbing Aus ATC (RADAR)
Sat 04:47:28 PM -33.8892 150.9357 306° West 85 98 1,700 712 Climbing Aus ATC (RADAR)
Sat 04:48:02 PM -33.8823 150.9202 298° West 87 100 2,100 730 Climbing Aus ATC (RADAR)
Sat 04:48:42 PM -33.8744 150.9020 298° West 89 102 2,600 686 Climbing Aus ATC (RADAR)
Sat 04:49:12 PM -33.8681 150.8883 299° West 90 104 2,900 636 Climbing Aus ATC (RADAR)
Sat 04:49:48 PM -33.8630 150.8709 290° West 90 104 3,300 686 Climbing Aus ATC (RADAR)
Sat 04:50:22 PM -33.8592 150.8522 284° West 93 107 3,700 696 Climbing Aus ATC (RADAR)
Sat 04:50:57 PM -33.8550 150.8340 285° West 93 107 4,100 568 Climbing Aus ATC (RADAR)
Sat 04:51:57 PM -33.8465 150.8030 288° West 96 110 4,600 565 Climbing Aus ATC (RADAR)
Sat 04:52:22 PM -33.8427 150.7912 291° West 87 100 4,900 700 Climbing Aus ATC (RADAR)
Sat 04:52:57 PM -33.8392 150.7724 282° West 93 107 5,300 600 Climbing Aus ATC (RADAR)
Sat 04:53:32 PM -33.8347 150.7535 286° West 96 110 5,600 514 Climbing Aus ATC (RADAR)
Sat 04:54:07 PM -33.8300 150.7338 286° West 101 116 5,900 86 Climbing Aus ATC (RADAR)
Sat 04:54:42 PM -33.8195 150.7105 298° West 133 153 5,700 -240 Descending Aus ATC (RADAR)
Sat 04:55:22 PM -33.8086 150.6819 295° West 139 160 5,600 80 Descending Aus ATC (RADAR)
Sat 04:55:57 PM -33.8003 150.6563 292° West 135 155 5,800 109 Climbing Aus ATC (RADAR)
Sat 04:57:12 PM -33.7812 150.6022 293° West 141 162 5,800 -57 Level Aus ATC (RADAR)
Sat 04:57:42 PM -33.7772 150.5789 282° West 139 160 5,700 94 Descending Aus ATC (RADAR)
Sat 04:58:16 PM -33.7748 150.5519 276° West 136 157 5,900  Climbing Aus ATC (RADAR)
Sat 04:59:07 PM -33.7692 150.5126 280° West 138 159 5,700 -71 Descending Aus ATC (RADAR)
Sat 04:59:41 PM -33.7669 150.4859 276° West 134 154 5,800 81 Climbing Aus ATC (RADAR)
Sat 05:00:21 PM -33.7651 150.4550 274° West 134 154 5,800  Level Aus ATC (RADAR)
Sat 05:00:51 PM -33.7646 150.4316 271° West 136 157 5,800 -60 Level Aus ATC (RADAR)
Sat 05:02:01 PM -33.7575 150.3760 279° West 142 163 5,700 -63 Descending Aus ATC (RADAR)
Sat 05:02:26 PM -33.7513 150.3576 292° West 141 162 5,700  Level Aus ATC (RADAR)
Sat 05:02:52 PM -33.7438 150.3400 297° West 139 160 5,700  Level Aus ATC (RADAR)
Sat 05:03:22 PM -33.7343 150.3190 298° West 140 161 5,700  Level Aus ATC (RADAR)
Sat 05:04:02 PM -33.7212 150.2902 299° West 144 166 5,700  Level Aus ATC (RADAR)
Sat 05:04:26 PM -33.7142 150.2721 295° West 143 165 5,700 -102 Level Aus ATC (RADAR)
Sat 05:05:01 PM -33.7278 150.2506 233° Southwest 141 162 5,600 -75 Descending Aus ATC (RADAR)
Sat 05:05:46 PM -33.7553 150.2529 176° South 133 153 5,600 171 Level Aus ATC (RADAR)
Sat 05:06:11 PM -33.7697 150.2554 172° South 127 146 5,800 157 Climbing Aus ATC (RADAR)
Sat 05:07:41 PM -33.8211 150.2629 173° South 123 142 5,900  Climbing Aus ATC (RADAR)
Sat 05:08:01 PM -33.8324 150.2655 169° South 123 142 5,800 -200 Descending Aus ATC (RADAR)
Sat 05:08:41 PM -33.8555 150.2655 180° South 127 146 5,700 -75 Descending Aus ATC (RADAR)
Sat 05:09:21 PM -33.8786 150.2586 194° South 129 148 5,700  Level Aus ATC (RADAR)
Sat 05:09:55 PM -33.9000 150.2552 187° South 132 152 5,700  Level Aus ATC (RADAR)
Sat 05:10:26 PM -33.9177 150.2515 190° South 129 148 5,700 -92 Level Aus ATC (RADAR)
Sat 05:11:00 PM -33.9389 150.2467 191° South 133 153 5,600 -58 Descending Aus ATC (RADAR)
Sat 05:12:10 PM -33.9807 150.2332 195° South 132 152 5,600 67 Level Aus ATC (RADAR)
Sat 05:12:30 PM -33.9922 150.2259 208° Southwest 136 157 5,700  Climbing Aus ATC (RADAR)
Sat 05:12:55 PM -34.0038 150.2120 225° Southwest 138 159 5,600 -109 Descending Aus ATC (RADAR)
Sat 05:13:25 PM -34.0161 150.1936 231° Southwest 138 159 5,600  Level Aus ATC (RADAR)

Login

Don't have an account? Register now (free) for customized features, flight alerts, and more!